Time;durP1;ratioP1;P1;durP2;ratioP2;P2;SDS_P1;SDS_P2;PMS_P1;PMS_P2;Temp;Humidity;BMP_temperature;BMP_pressure;BME280_temperature;BME280_humidity;BME280_pressure;Samples;Min_cycle;Max_cycle;Signal;HPM_P1;HPM_P2
2022/07/04 00:02:24;;;;;;;1.73;1.40;;;;;;;;;;5012536;28;20872;-58
2022/07/04 00:04:50;;;;;;;1.63;1.37;;;;;;;;;;5012378;28;20381;-58
2022/07/04 00:07:16;;;;;;;3.17;1.43;;;;;;;;;;5012231;28;20419;-58
2022/07/04 00:09:43;;;;;;;1.30;1.20;;;;;;;;;;5012326;28;20448;-58
2022/07/04 00:12:09;;;;;;;1.50;1.40;;;;;;;;;;5012047;28;20486;-58
2022/07/04 00:14:36;;;;;;;2.83;1.47;;;;;;;;;;5012240;28;20377;-58
2022/07/04 00:17:01;;;;;;;1.50;1.40;;;;;;;;;;5011995;28;20829;-58
2022/07/04 00:19:28;;;;;;;1.50;1.40;;;;;;;;;;5012110;28;20489;-58
2022/07/04 00:21:54;;;;;;;1.20;1.10;;;;;;;;;;5011960;28;20365;-58
2022/07/04 00:24:20;;;;;;;1.50;1.40;;;;;;;;;;5012118;28;20412;-58
2022/07/04 00:26:46;;;;;;;2.80;1.53;;;;;;;;;;5012491;28;20400;-58
2022/07/04 00:29:12;;;;;;;2.70;1.60;;;;;;;;;;5011922;28;20417;-58
2022/07/04 00:31:38;;;;;;;2.27;1.30;;;;;;;;;;5011622;28;20442;-58
2022/07/04 00:34:05;;;;;;;1.70;1.60;;;;;;;;;;5012169;28;20441;-58
2022/07/04 00:36:31;;;;;;;1.53;1.43;;;;;;;;;;5011863;28;20507;-58
2022/07/04 00:38:57;;;;;;;1.70;1.43;;;;;;;;;;5011872;28;20441;-58
2022/07/04 00:41:23;;;;;;;3.10;1.43;;;;;;;;;;5014494;28;20403;-55
2022/07/04 00:44:06;;;;;;;1.43;1.33;;;;;;;;;;5016010;28;20445;-54
2022/07/04 00:46:32;;;;;;;2.43;1.37;;;;;;;;;;5015834;28;20401;-54
2022/07/04 00:48:58;;;;;;;1.50;1.40;;;;;;;;;;5015906;28;20399;-56
2022/07/04 00:51:25;;;;;;;2.00;1.37;;;;;;;;;;5015491;28;20408;-54
2022/07/04 00:53:51;;;;;;;1.50;1.37;;;;;;;;;;5015802;28;20417;-56
2022/07/04 00:56:17;;;;;;;1.90;1.80;;;;;;;;;;5015704;28;20484;-55
2022/07/04 00:58:43;;;;;;;3.57;2.30;;;;;;;;;;5015681;28;20931;-56
2022/07/04 01:01:09;;;;;;;1.60;1.40;;;;;;;;;;5014960;28;20407;-56
2022/07/04 01:03:35;;;;;;;1.60;1.47;;;;;;;;;;5015011;28;20426;-56
2022/07/04 01:06:01;;;;;;;1.87;1.53;;;;;;;;;;5015288;28;20516;-54
2022/07/04 01:08:27;;;;;;;1.70;1.60;;;;;;;;;;5015466;28;20926;-55
2022/07/04 01:10:53;;;;;;;3.80;1.77;;;;;;;;;;5015141;28;20394;-55
2022/07/04 01:13:23;;;;;;;2.30;1.70;;;;;;;;;;5015370;28;20396;-54
2022/07/04 01:15:50;;;;;;;2.90;1.93;;;;;;;;;;5015776;28;20407;-55
2022/07/04 01:18:16;;;;;;;6.17;2.87;;;;;;;;;;5015200;28;20492;-55
2022/07/04 01:20:42;;;;;;;6.70;2.23;;;;;;;;;;5015263;28;20386;-54
2022/07/04 01:23:08;;;;;;;3.50;2.27;;;;;;;;;;5015447;28;20772;-54
2022/07/04 01:25:34;;;;;;;3.43;2.20;;;;;;;;;;5015256;28;20418;-55
2022/07/04 01:28:00;;;;;;;1.80;1.70;;;;;;;;;;5015125;28;20514;-55
2022/07/04 01:30:26;;;;;;;3.20;2.27;;;;;;;;;;5014873;28;20377;-56
2022/07/04 01:32:53;;;;;;;2.50;2.30;;;;;;;;;;5015152;28;20463;-54
2022/07/04 01:35:19;;;;;;;2.23;2.03;;;;;;;;;;5015161;28;20369;-54
2022/07/04 01:37:45;;;;;;;4.53;2.20;;;;;;;;;;5014921;28;20812;-55
2022/07/04 01:40:12;;;;;;;2.60;1.93;;;;;;;;;;5014653;28;20452;-55
2022/07/04 01:42:38;;;;;;;5.20;2.07;;;;;;;;;;5014923;28;20921;-54
2022/07/04 01:45:04;;;;;;;3.20;2.20;;;;;;;;;;5014928;28;20760;-53
2022/07/04 01:47:30;;;;;;;2.67;2.47;;;;;;;;;;5014977;28;20403;-54
2022/07/04 01:49:56;;;;;;;2.40;2.20;;;;;;;;;;5014888;28;20410;-54
2022/07/04 01:52:22;;;;;;;2.13;2.00;;;;;;;;;;5014402;28;20418;-54
2022/07/04 01:54:48;;;;;;;5.13;2.30;;;;;;;;;;5014657;28;20406;-56
2022/07/04 01:57:14;;;;;;;4.53;2.83;;;;;;;;;;5014819;28;20525;-55
2022/07/04 02:02:25;;;;;;;2.10;1.90;;;;;;;;;;5014732;28;20366;-54
2022/07/04 02:04:51;;;;;;;3.13;1.97;;;;;;;;;;5014555;28;20397;-54
2022/07/04 02:07:17;;;;;;;3.80;2.33;;;;;;;;;;5014422;28;20411;-55
2022/07/04 02:09:43;;;;;;;9.30;2.33;;;;;;;;;;5014355;28;20401;-55
2022/07/04 02:14:54;;;;;;;2.40;2.03;;;;;;;;;;5014703;28;20410;-54
2022/07/04 02:17:21;;;;;;;2.23;1.83;;;;;;;;;;5014314;28;20423;-54
2022/07/04 02:19:47;;;;;;;4.23;2.83;;;;;;;;;;5014165;28;20969;-55
2022/07/04 02:22:14;;;;;;;3.63;2.40;;;;;;;;;;5013998;28;20407;-54
2022/07/04 02:24:40;;;;;;;4.50;2.90;;;;;;;;;;5014307;28;20388;-55
2022/07/04 02:27:06;;;;;;;2.40;1.80;;;;;;;;;;5014271;28;20432;-54
2022/07/04 02:29:32;;;;;;;3.00;2.50;;;;;;;;;;5014096;28;20375;-54
2022/07/04 02:31:58;;;;;;;2.43;2.23;;;;;;;;;;5013854;28;20414;-54
2022/07/04 02:34:24;;;;;;;2.40;2.20;;;;;;;;;;5013827;28;20831;-55
2022/07/04 02:36:50;;;;;;;3.00;2.20;;;;;;;;;;5013998;28;20431;-56
2022/07/04 02:39:16;;;;;;;6.53;2.93;;;;;;;;;;5013768;28;20431;-54
2022/07/04 02:41:42;;;;;;;3.70;2.10;;;;;;;;;;5013919;28;20789;-56
2022/07/04 02:44:09;;;;;;;2.20;2.10;;;;;;;;;;5013811;28;20400;-54
2022/07/04 02:46:35;;;;;;;2.50;2.30;;;;;;;;;;5013759;28;20423;-55
2022/07/04 02:49:01;;;;;;;4.20;2.60;;;;;;;;;;5013646;28;20407;-54
2022/07/04 02:51:27;;;;;;;2.40;2.30;;;;;;;;;;5013415;28;20410;-55
2022/07/04 02:53:53;;;;;;;1.93;1.83;;;;;;;;;;5013628;28;20483;-55
2022/07/04 02:56:19;;;;;;;2.37;2.17;;;;;;;;;;5013770;28;20876;-56
2022/07/04 02:58:45;;;;;;;5.83;2.33;;;;;;;;;;5013387;28;20465;-54
2022/07/04 03:01:14;;;;;;;2.13;2.03;;;;;;;;;;5013258;28;20404;-54
2022/07/04 03:03:41;;;;;;;3.10;2.57;;;;;;;;;;5012787;28;20914;-55
2022/07/04 03:06:08;;;;;;;4.27;2.03;;;;;;;;;;5013378;28;20407;-55
2022/07/04 03:08:34;;;;;;;5.47;2.83;;;;;;;;;;5013360;28;20461;-53
2022/07/04 03:11:00;;;;;;;3.67;2.23;;;;;;;;;;5013063;28;20399;-54
2022/07/04 03:13:26;;;;;;;4.37;3.97;;;;;;;;;;5013216;28;20410;-55
2022/07/04 03:15:52;;;;;;;2.50;2.30;;;;;;;;;;5013291;28;20407;-53
2022/07/04 03:18:18;;;;;;;2.30;2.10;;;;;;;;;;5013437;28;20440;-55
2022/07/04 03:20:44;;;;;;;3.53;2.50;;;;;;;;;;5013036;28;20405;-55
2022/07/04 03:23:10;;;;;;;2.97;2.70;;;;;;;;;;5013153;28;20406;-55
2022/07/04 03:25:36;;;;;;;3.80;2.43;;;;;;;;;;5013093;28;20409;-55
2022/07/04 03:28:02;;;;;;;3.00;2.63;;;;;;;;;;5013277;28;20412;-54
2022/07/04 03:30:28;;;;;;;5.23;2.80;;;;;;;;;;5012702;28;20419;-55
2022/07/04 03:32:54;;;;;;;2.40;2.20;;;;;;;;;;5012876;28;20507;-55
2022/07/04 03:35:20;;;;;;;3.30;2.67;;;;;;;;;;5012876;28;20861;-55
2022/07/04 03:37:46;;;;;;;2.90;2.60;;;;;;;;;;5012646;28;20432;-55
2022/07/04 03:40:12;;;;;;;3.80;2.47;;;;;;;;;;5012560;28;20457;-53
2022/07/04 03:42:38;;;;;;;4.87;3.20;;;;;;;;;;5012877;28;20749;-53
2022/07/04 03:45:05;;;;;;;3.30;2.57;;;;;;;;;;5012746;28;20395;-53
2022/07/04 03:47:31;;;;;;;3.47;2.43;;;;;;;;;;5012563;28;20432;-55
2022/07/04 03:49:57;;;;;;;4.23;2.20;;;;;;;;;;5012756;28;20403;-55
2022/07/04 03:52:23;;;;;;;2.50;2.33;;;;;;;;;;5012753;28;20417;-56
2022/07/04 03:54:49;;;;;;;2.53;2.30;;;;;;;;;;5012651;28;20407;-56
2022/07/04 03:57:15;;;;;;;3.03;2.73;;;;;;;;;;5012525;28;20775;-53
2022/07/04 03:59:41;;;;;;;6.03;3.20;;;;;;;;;;5012338;28;20435;-53
2022/07/04 04:02:07;;;;;;;8.70;2.90;;;;;;;;;;5012157;28;20373;-53
2022/07/04 04:07:18;;;;;;;3.07;2.63;;;;;;;;;;5012378;28;20421;-53
2022/07/04 04:09:44;;;;;;;3.37;2.57;;;;;;;;;;5012280;28;20393;-56
2022/07/04 04:12:10;;;;;;;4.90;3.47;;;;;;;;;;5012558;28;20398;-53
2022/07/04 04:14:36;;;;;;;3.00;2.70;;;;;;;;;;5011821;28;20400;-53
2022/07/04 04:17:02;;;;;;;2.77;2.53;;;;;;;;;;5011880;28;20536;-53
2022/07/04 04:19:28;;;;;;;4.73;3.83;;;;;;;;;;5012110;28;20426;-53
2022/07/04 04:21:54;;;;;;;2.90;2.60;;;;;;;;;;5012040;28;20416;-54
2022/07/04 04:24:20;;;;;;;7.70;3.00;;;;;;;;;;5012204;28;20499;-53
2022/07/04 04:26:46;;;;;;;3.40;2.40;;;;;;;;;;5012045;28;20390;-54
2022/07/04 04:29:12;;;;;;;3.37;2.90;;;;;;;;;;5011985;28;20830;-55
2022/07/04 04:31:38;;;;;;;3.60;2.67;;;;;;;;;;5011881;28;20385;-55
2022/07/04 04:34:04;;;;;;;3.80;2.90;;;;;;;;;;5012088;28;20782;-53
2022/07/04 04:36:30;;;;;;;4.20;3.17;;;;;;;;;;5012001;28;20432;-53
2022/07/04 04:38:56;;;;;;;3.50;2.90;;;;;;;;;;5011839;28;20456;-54
2022/07/04 04:41:22;;;;;;;8.80;4.80;;;;;;;;;;5011660;28;20423;-53
2022/07/04 04:43:48;;;;;;;2.50;2.30;;;;;;;;;;5011917;28;20429;-54
2022/07/04 04:46:14;;;;;;;3.50;3.20;;;;;;;;;;5011886;28;20474;-55
2022/07/04 04:48:40;;;;;;;5.10;3.20;;;;;;;;;;5012055;28;20405;-54
2022/07/04 04:51:06;;;;;;;5.20;2.83;;;;;;;;;;5011866;28;20463;-53
2022/07/04 04:53:32;;;;;;;4.00;3.00;;;;;;;;;;5011879;28;20416;-54
2022/07/04 04:55:58;;;;;;;4.60;3.00;;;;;;;;;;5011810;28;20409;-53
2022/07/04 04:58:24;;;;;;;4.67;3.50;;;;;;;;;;5011581;28;20430;-55
2022/07/04 05:00:50;;;;;;;4.43;3.60;;;;;;;;;;5011480;28;20399;-56
2022/07/04 05:03:17;;;;;;;6.60;4.40;;;;;;;;;;5011809;28;20447;-56
2022/07/04 05:05:43;;;;;;;5.37;4.80;;;;;;;;;;5011706;28;21009;-56
2022/07/04 05:08:09;;;;;;;7.73;4.43;;;;;;;;;;5011716;28;20404;-55
2022/07/04 05:10:35;;;;;;;4.50;4.10;;;;;;;;;;5011441;28;20411;-55
2022/07/04 05:13:01;;;;;;;5.23;4.73;;;;;;;;;;5011705;28;20419;-53
2022/07/04 05:15:27;;;;;;;6.30;4.30;;;;;;;;;;5011901;28;20396;-54
2022/07/04 05:17:53;;;;;;;6.47;4.50;;;;;;;;;;5011553;28;20428;-53
2022/07/04 05:20:19;;;;;;;8.23;4.03;;;;;;;;;;5011334;28;20432;-53
2022/07/04 05:22:45;;;;;;;7.03;3.73;;;;;;;;;;5011638;28;20378;-53
2022/07/04 05:25:11;;;;;;;6.10;3.80;;;;;;;;;;5011463;28;20496;-53
2022/07/04 05:27:37;;;;;;;6.90;4.30;;;;;;;;;;5013764;28;20393;-55
2022/07/04 05:30:04;;;;;;;7.13;4.20;;;;;;;;;;5015240;28;20777;-53
2022/07/04 05:32:30;;;;;;;11.20;5.10;;;;;;;;;;5015254;28;20437;-53
2022/07/04 05:34:56;;;;;;;5.63;3.93;;;;;;;;;;5015184;28;20485;-53
2022/07/04 05:37:22;;;;;;;5.17;4.10;;;;;;;;;;5014957;28;20420;-54
2022/07/04 05:39:49;;;;;;;4.17;3.73;;;;;;;;;;5014830;28;20461;-53
2022/07/04 05:42:15;;;;;;;13.83;4.30;;;;;;;;;;5014856;28;20366;-53
2022/07/04 05:44:41;;;;;;;8.03;3.87;;;;;;;;;;5014935;28;20415;-53
2022/07/04 05:47:07;;;;;;;4.43;3.87;;;;;;;;;;5014912;28;20422;-53
2022/07/04 05:49:33;;;;;;;5.80;4.63;;;;;;;;;;5014864;28;20494;-54
2022/07/04 05:51:59;;;;;;;4.80;3.40;;;;;;;;;;5014737;28;20461;-53
2022/07/04 05:54:25;;;;;;;7.13;3.80;;;;;;;;;;5014650;28;20392;-53
2022/07/04 05:56:51;;;;;;;7.70;4.90;;;;;;;;;;5014563;28;20418;-53
2022/07/04 05:59:17;;;;;;;7.00;5.33;;;;;;;;;;5014737;28;20506;-55
2022/07/04 06:01:43;;;;;;;7.60;4.80;;;;;;;;;;5014444;28;20377;-54
2022/07/04 06:04:09;;;;;;;7.50;4.80;;;;;;;;;;5014605;28;20748;-55
2022/07/04 06:06:35;;;;;;;8.97;4.73;;;;;;;;;;5014493;28;20395;-55
2022/07/04 06:09:02;;;;;;;4.70;4.23;;;;;;;;;;5014379;28;20759;-54
2022/07/04 06:11:28;;;;;;;13.87;4.60;;;;;;;;;;5014330;28;20911;-55
2022/07/04 06:13:55;;;;;;;6.93;4.40;;;;;;;;;;5014428;28;20498;-54
2022/07/04 06:16:21;;;;;;;8.17;4.40;;;;;;;;;;5014344;28;20414;-54
2022/07/04 06:18:47;;;;;;;10.87;4.20;;;;;;;;;;5014474;28;20455;-54
2022/07/04 06:21:13;;;;;;;7.50;4.00;;;;;;;;;;5013965;28;20375;-55
2022/07/04 06:23:39;;;;;;;7.00;3.63;;;;;;;;;;5014023;28;20404;-55
2022/07/04 06:26:05;;;;;;;6.20;3.47;;;;;;;;;;5014370;28;20385;-55
2022/07/04 06:28:31;;;;;;;7.50;2.90;;;;;;;;;;5014119;28;20409;-56
2022/07/04 06:30:57;;;;;;;4.60;2.90;;;;;;;;;;5013821;28;20782;-55
2022/07/04 06:33:23;;;;;;;3.33;2.50;;;;;;;;;;5014022;28;20855;-56
2022/07/04 06:35:54;;;;;;;4.00;3.70;;;;;;;;;;5014024;28;20413;-53
2022/07/04 06:38:21;;;;;;;9.33;2.90;;;;;;;;;;5012688;28;21007;-54
2022/07/04 06:40:49;;;;;;;4.60;2.80;;;;;;;;;;5015321;28;20496;-58
2022/07/04 06:43:15;;;;;;;5.10;2.80;;;;;;;;;;5015791;28;20389;-58
2022/07/04 06:45:41;;;;;;;4.93;2.87;;;;;;;;;;5016117;28;20488;-58
2022/07/04 06:48:08;;;;;;;3.10;2.57;;;;;;;;;;5015033;28;20959;-57
2022/07/04 06:50:34;;;;;;;4.80;2.90;;;;;;;;;;5014814;28;20415;-58
2022/07/04 06:53:01;;;;;;;5.03;3.10;;;;;;;;;;5015090;28;20613;-58
2022/07/04 06:55:27;;;;;;;5.10;2.50;;;;;;;;;;5014436;28;20758;-58
2022/07/04 06:57:53;;;;;;;5.30;2.30;;;;;;;;;;5013841;28;20429;-57
2022/07/04 07:00:19;;;;;;;3.90;2.63;;;;;;;;;;5013458;28;20461;-57
2022/07/04 07:02:45;;;;;;;3.80;2.83;;;;;;;;;;5014425;28;20927;-58
2022/07/04 07:05:11;;;;;;;2.90;2.57;;;;;;;;;;5013799;28;20406;-58
2022/07/04 07:07:38;;;;;;;4.90;2.83;;;;;;;;;;5013533;28;20488;-58
2022/07/04 07:10:06;;;;;;;8.83;2.80;;;;;;;;;;5013278;28;20495;-58
2022/07/04 07:12:32;;;;;;;4.67;3.53;;;;;;;;;;5013480;28;20604;-59
2022/07/04 07:14:58;;;;;;;2.73;2.53;;;;;;;;;;5013429;28;20409;-58
2022/07/04 07:17:24;;;;;;;2.97;2.67;;;;;;;;;;5013101;28;20393;-58
2022/07/04 07:19:50;;;;;;;4.07;2.60;;;;;;;;;;5013325;28;20446;-58
2022/07/04 07:22:16;;;;;;;3.40;2.50;;;;;;;;;;5011729;28;20947;-58
2022/07/04 07:24:43;;;;;;;7.07;3.13;;;;;;;;;;5013500;28;20377;-58
2022/07/04 07:27:09;;;;;;;3.30;2.60;;;;;;;;;;5013124;28;20473;-58
2022/07/04 07:29:36;;;;;;;3.70;2.40;;;;;;;;;;5009153;28;20433;-57
2022/07/04 07:32:02;;;;;;;5.47;2.73;;;;;;;;;;5012508;28;20425;-58
2022/07/04 07:34:28;;;;;;;3.13;2.10;;;;;;;;;;5013322;28;20473;-57
2022/07/04 07:36:57;;;;;;;7.80;1.90;;;;;;;;;;5015813;28;20442;-55
2022/07/04 07:39:23;;;;;;;4.37;2.60;;;;;;;;;;5014173;28;20548;-55
2022/07/04 07:41:49;;;;;;;3.23;2.27;;;;;;;;;;5011829;28;20925;-54
2022/07/04 07:44:15;;;;;;;2.37;2.10;;;;;;;;;;5012968;28;20444;-58
2022/07/04 07:46:41;;;;;;;3.80;2.00;;;;;;;;;;5013576;28;20443;-58
2022/07/04 07:49:07;;;;;;;3.37;1.73;;;;;;;;;;5012964;28;20877;-58
2022/07/04 07:51:33;;;;;;;4.03;2.20;;;;;;;;;;5014721;28;20419;-58
2022/07/04 07:53:59;;;;;;;2.37;2.10;;;;;;;;;;5013634;28;20433;-54
2022/07/04 07:56:25;;;;;;;3.23;1.60;;;;;;;;;;5011637;28;20419;-55
2022/07/04 07:58:51;;;;;;;2.80;1.97;;;;;;;;;;5011604;28;20450;-55
2022/07/04 08:01:17;;;;;;;6.40;1.80;;;;;;;;;;5011250;28;20423;-57
2022/07/04 08:06:28;;;;;;;3.00;2.00;;;;;;;;;;5012477;28;20445;-55
2022/07/04 08:08:54;;;;;;;2.40;1.67;;;;;;;;;;5012420;28;20442;-54
2022/07/04 08:11:20;;;;;;;2.57;1.80;;;;;;;;;;5011566;28;20684;-57
2022/07/04 08:13:47;;;;;;;3.10;1.70;;;;;;;;;;5012201;28;20423;-56
2022/07/04 08:16:13;;;;;;;1.43;1.23;;;;;;;;;;5011740;28;20418;-56
2022/07/04 08:18:39;;;;;;;1.90;1.40;;;;;;;;;;5012144;28;20529;-56
2022/07/04 08:21:05;;;;;;;2.17;1.60;;;;;;;;;;5011700;28;20515;-57
2022/07/04 08:23:32;;;;;;;2.23;1.30;;;;;;;;;;5012022;28;20396;-56
2022/07/04 08:25:58;;;;;;;3.83;1.30;;;;;;;;;;5012019;28;20399;-56
2022/07/04 08:28:24;;;;;;;7.47;1.47;;;;;;;;;;5011993;28;20771;-55
2022/07/04 08:30:50;;;;;;;1.90;1.40;;;;;;;;;;5011357;28;20468;-57
2022/07/04 08:33:16;;;;;;;5.43;1.50;;;;;;;;;;5012105;28;20404;-57
2022/07/04 08:35:42;;;;;;;2.10;1.10;;;;;;;;;;5011826;28;20419;-57
2022/07/04 08:38:08;;;;;;;3.33;1.00;;;;;;;;;;5012000;28;20442;-56
2022/07/04 08:40:35;;;;;;;3.20;1.07;;;;;;;;;;5011209;28;20473;-57
2022/07/04 08:43:02;;;;;;;1.20;1.10;;;;;;;;;;5011882;28;20403;-57
2022/07/04 08:45:29;;;;;;;1.83;1.00;;;;;;;;;;5011493;28;20411;-55
2022/07/04 08:48:06;;;;;;;4.20;1.30;;;;;;;;;;5011853;28;20924;-56
2022/07/04 08:50:33;;;;;;;2.90;1.10;;;;;;;;;;5011553;28;20477;-56
2022/07/04 08:53:00;;;;;;;1.10;1.00;;;;;;;;;;5011748;28;20414;-56
2022/07/04 08:58:31;;;;;;;1.00;0.90;;;;;;;;;;5007951;28;20454;-57
2022/07/04 09:01:14;;;;;;;1.20;0.90;;;;;;;;;;5011138;28;20473;-55
2022/07/04 09:03:42;;;;;;;1.23;0.93;;;;;;;;;;5015421;28;20521;-55
2022/07/04 09:06:09;;;;;;;1.00;0.90;;;;;;;;;;5014781;28;20416;-56
2022/07/04 09:08:35;;;;;;;1.77;1.10;;;;;;;;;;5015328;28;20399;-56
2022/07/04 09:11:02;;;;;;;1.53;0.93;;;;;;;;;;5014986;28;20889;-55
2022/07/04 09:13:28;;;;;;;1.27;1.17;;;;;;;;;;5015301;28;20442;-55
2022/07/04 09:15:54;;;;;;;1.77;1.00;;;;;;;;;;5014787;28;20419;-56
2022/07/04 09:18:20;;;;;;;1.23;0.90;;;;;;;;;;5015005;28;20423;-55
2022/07/04 09:20:46;;;;;;;2.60;1.03;;;;;;;;;;5014378;28;21022;-56
2022/07/04 09:23:20;;;;;;;1.43;1.23;;;;;;;;;;5015180;28;20437;-56
2022/07/04 09:25:46;;;;;;;2.10;1.00;;;;;;;;;;5014761;28;20431;-55
2022/07/04 09:28:12;;;;;;;3.30;1.17;;;;;;;;;;5014650;28;20434;-55
2022/07/04 09:30:48;;;;;;;2.83;1.10;;;;;;;;;;5014574;28;20861;-56
2022/07/04 09:33:17;;;;;;;1.20;1.10;;;;;;;;;;5014396;28;20771;-55
2022/07/04 09:35:43;;;;;;;6.17;1.10;;;;;;;;;;5008278;28;20974;-56
2022/07/04 09:38:11;;;;;;;2.07;0.90;;;;;;;;;;5022350;28;20455;-55
2022/07/04 09:43:23;;;;;;;1.40;1.00;;;;;;;;;;5014566;28;20960;-55
2022/07/04 09:45:56;;;;;;;2.70;0.93;;;;;;;;;;5014253;28;20811;-58
2022/07/04 09:48:23;;;;;;;1.57;0.90;;;;;;;;;;5014210;28;20438;-56
2022/07/04 09:50:49;;;;;;;0.93;0.83;;;;;;;;;;5014300;28;20399;-55
2022/07/04 09:53:15;;;;;;;1.30;0.90;;;;;;;;;;5014250;28;20518;-55
2022/07/04 09:55:41;;;;;;;3.27;1.00;;;;;;;;;;5014302;28;20496;-55
2022/07/04 09:58:11;;;;;;;3.13;1.03;;;;;;;;;;5013981;28;20518;-58
2022/07/04 10:00:41;;;;;;;1.00;0.90;;;;;;;;;;5013552;28;20446;-58
2022/07/04 10:03:21;;;;;;;1.87;1.10;;;;;;;;;;5014214;28;20403;-55
2022/07/04 10:05:48;;;;;;;2.63;1.10;;;;;;;;;;5014068;28;20415;-57
2022/07/04 10:08:14;;;;;;;2.13;1.17;;;;;;;;;;5014096;28;20458;-56
2022/07/04 10:10:40;;;;;;;1.70;1.20;;;;;;;;;;5013924;28;20457;-56
2022/07/04 10:13:10;;;;;;;1.40;0.87;;;;;;;;;;5012860;28;20932;-57
2022/07/04 10:15:37;;;;;;;1.27;0.90;;;;;;;;;;5013764;28;20421;-56
2022/07/04 10:18:04;;;;;;;1.77;0.90;;;;;;;;;;5013353;28;20466;-57
2022/07/04 10:20:30;;;;;;;1.33;0.90;;;;;;;;;;5012988;28;20455;-58
2022/07/04 10:22:57;;;;;;;1.80;0.90;;;;;;;;;;5012157;28;20902;-58
2022/07/04 10:25:23;;;;;;;1.20;1.10;;;;;;;;;;5011441;28;20407;-56
2022/07/04 10:27:51;;;;;;;1.93;0.90;;;;;;;;;;5013923;28;20432;-56
2022/07/04 10:30:20;;;;;;;1.30;0.90;;;;;;;;;;5013147;28;20840;-59
2022/07/04 10:32:48;;;;;;;1.10;0.80;;;;;;;;;;5012615;28;20423;-55
2022/07/04 10:35:16;;;;;;;3.67;1.07;;;;;;;;;;5013811;28;20549;-55
2022/07/04 10:38:03;;;;;;;1.57;0.80;;;;;;;;;;5013341;28;20467;-57
2022/07/04 10:40:44;;;;;;;1.10;0.90;;;;;;;;;;5014675;28;20977;-60
2022/07/04 10:43:34;;;;;;;1.20;0.90;;;;;;;;;;5013299;28;20903;-59
2022/07/04 10:46:05;;;;;;;1.20;1.00;;;;;;;;;;5013340;28;20883;-60
2022/07/04 10:48:31;;;;;;;1.30;1.13;;;;;;;;;;5012065;28;20815;-59
2022/07/04 10:51:00;;;;;;;2.70;1.00;;;;;;;;;;5011602;28;20399;-59
2022/07/04 10:53:26;;;;;;;1.83;1.20;;;;;;;;;;5012930;28;20403;-59
2022/07/04 10:55:53;;;;;;;3.60;1.07;;;;;;;;;;5013554;28;20396;-59
2022/07/04 10:58:37;;;;;;;2.90;1.93;;;;;;;;;;5012912;28;20470;-60
2022/07/04 11:01:13;;;;;;;2.50;1.03;;;;;;;;;;5014741;28;20427;-59
2022/07/04 11:03:49;;;;;;;1.27;0.70;;;;;;;;;;5013351;28;20425;-59
2022/07/04 11:06:38;;;;;;;1.47;1.00;;;;;;;;;;5009830;28;20410;-60
2022/07/04 11:09:30;;;;;;;1.33;1.07;;;;;;;;;;5007417;28;20791;-59
2022/07/04 11:11:58;;;;;;;1.17;0.93;;;;;;;;;;5010299;28;20423;-59
2022/07/04 11:14:31;;;;;;;2.40;1.10;;;;;;;;;;5012869;28;20415;-59
2022/07/04 11:16:56;;;;;;;1.70;0.90;;;;;;;;;;5012995;28;20442;-59
2022/07/04 11:19:23;;;;;;;1.57;1.20;;;;;;;;;;5011739;28;20455;-59
2022/07/04 11:21:49;;;;;;;3.20;1.37;;;;;;;;;;5012364;28;20468;-60
2022/07/04 11:24:15;;;;;;;3.50;1.10;;;;;;;;;;5012559;28;20412;-60
2022/07/04 11:26:41;;;;;;;1.57;1.07;;;;;;;;;;5012231;28;20426;-60
2022/07/04 11:29:07;;;;;;;2.27;1.20;;;;;;;;;;5010887;28;20403;-60
2022/07/04 11:31:40;;;;;;;3.00;1.03;;;;;;;;;;5012328;28;20407;-59
2022/07/04 11:34:06;;;;;;;1.33;1.00;;;;;;;;;;5012665;28;20415;-59
2022/07/04 11:36:33;;;;;;;1.90;1.10;;;;;;;;;;5012858;28;20879;-60
2022/07/04 11:39:09;;;;;;;2.60;1.30;;;;;;;;;;5012614;28;20962;-59
2022/07/04 11:47:18;;;;;;;2.47;1.50;;;;;;;;;;5005755;28;20410;-59
2022/07/04 11:49:48;;;;;;;2.90;1.23;;;;;;;;;;5012570;28;20395;-59
2022/07/04 11:52:15;;;;;;;1.93;1.10;;;;;;;;;;5012264;28;20395;-59
2022/07/04 11:54:42;;;;;;;5.07;1.87;;;;;;;;;;5011394;28;20572;-57
2022/07/04 11:57:12;;;;;;;2.70;1.00;;;;;;;;;;5011900;28;20430;-55
2022/07/04 11:59:38;;;;;;;2.33;1.10;;;;;;;;;;5012423;28;21069;-58
2022/07/04 12:02:12;;;;;;;1.97;1.43;;;;;;;;;;5011897;28;20415;-56
2022/07/04 12:04:38;;;;;;;1.60;1.10;;;;;;;;;;5012067;28;20419;-56
2022/07/04 12:07:33;;;;;;;1.70;1.33;;;;;;;;;;5012315;28;20419;-57
2022/07/04 12:10:16;;;;;;;1.50;1.00;;;;;;;;;;5010467;28;20427;-57
2022/07/04 12:12:58;;;;;;;1.50;1.40;;;;;;;;;;5012232;28;20926;-58
2022/07/04 12:15:25;;;;;;;2.80;1.40;;;;;;;;;;5012052;28;20417;-58
2022/07/04 12:17:54;;;;;;;3.10;1.20;;;;;;;;;;5012021;28;20924;-55
2022/07/04 12:20:20;;;;;;;3.90;1.40;;;;;;;;;;5011763;28;20461;-55
2022/07/04 12:22:57;;;;;;;1.20;1.10;;;;;;;;;;5012140;28;20404;-56
2022/07/04 12:25:24;;;;;;;1.37;1.03;;;;;;;;;;5011852;28;20442;-58
2022/07/04 12:27:54;;;;;;;2.07;1.10;;;;;;;;;;5011811;28;20439;-56
2022/07/04 12:30:21;;;;;;;2.00;1.60;;;;;;;;;;5011610;28;20433;-57
2022/07/04 12:32:48;;;;;;;1.73;1.40;;;;;;;;;;5011771;28;20423;-56
2022/07/04 12:35:32;;;;;;;1.37;1.20;;;;;;;;;;5012020;28;20403;-58
2022/07/04 12:38:18;;;;;;;3.80;1.30;;;;;;;;;;5010854;28;20533;-57
2022/07/04 12:40:55;;;;;;;3.10;1.20;;;;;;;;;;5011355;28;20466;-55
2022/07/04 12:43:21;;;;;;;2.40;1.40;;;;;;;;;;5012330;28;20406;-56
2022/07/04 12:45:54;;;;;;;2.13;1.20;;;;;;;;;;5010458;28;20415;-55
2022/07/04 12:48:29;;;;;;;3.37;1.60;;;;;;;;;;5011765;28;20483;-57
2022/07/04 12:50:56;;;;;;;1.20;1.10;;;;;;;;;;5011378;28;20445;-57
2022/07/04 12:53:22;;;;;;;1.83;1.57;;;;;;;;;;5011752;28;20401;-56
2022/07/04 12:55:49;;;;;;;1.93;1.33;;;;;;;;;;5011630;28;20458;-57
2022/07/04 12:58:15;;;;;;;1.87;1.67;;;;;;;;;;5010839;28;20799;-57
2022/07/04 13:00:42;;;;;;;1.97;1.10;;;;;;;;;;5008881;28;20469;-57
2022/07/04 13:03:08;;;;;;;1.77;1.60;;;;;;;;;;5010186;28;20434;-58
2022/07/04 13:05:35;;;;;;;2.80;1.57;;;;;;;;;;5011201;28;20415;-56
2022/07/04 13:08:02;;;;;;;1.33;1.20;;;;;;;;;;5011299;28;20949;-58
2022/07/04 13:10:28;;;;;;;4.57;1.70;;;;;;;;;;5011044;28;20477;-56
2022/07/04 13:12:54;;;;;;;1.50;1.37;;;;;;;;;;5011609;28;20454;-56
2022/07/04 13:15:20;;;;;;;2.10;1.40;;;;;;;;;;5011290;28;20410;-57
2022/07/04 13:17:46;;;;;;;1.60;1.50;;;;;;;;;;5011239;28;20445;-57
2022/07/04 13:20:12;;;;;;;2.80;1.10;;;;;;;;;;5010917;28;20482;-57
2022/07/04 13:22:38;;;;;;;2.90;1.30;;;;;;;;;;5011240;28;20423;-56
2022/07/04 13:25:06;;;;;;;2.63;1.30;;;;;;;;;;5011545;28;20773;-57
2022/07/04 13:27:32;;;;;;;1.23;1.13;;;;;;;;;;5010902;28;20431;-56
2022/07/04 13:29:58;;;;;;;3.60;3.30;;;;;;;;;;5011100;28;20911;-56
2022/07/04 13:32:24;;;;;;;1.40;1.20;;;;;;;;;;5010790;28;20419;-58
2022/07/04 13:34:51;;;;;;;5.40;1.47;;;;;;;;;;5011189;28;20839;-57
2022/07/04 13:37:18;;;;;;;4.40;1.40;;;;;;;;;;5011172;28;20470;-58
2022/07/04 13:39:44;;;;;;;3.00;1.30;;;;;;;;;;5011225;28;20461;-56
2022/07/04 13:42:10;;;;;;;1.30;1.20;;;;;;;;;;5011159;28;20409;-56
2022/07/04 13:44:36;;;;;;;1.30;1.20;;;;;;;;;;5010719;28;20422;-55
2022/07/04 13:47:02;;;;;;;2.40;2.13;;;;;;;;;;5011025;28;20802;-55
2022/07/04 13:49:28;;;;;;;3.10;1.30;;;;;;;;;;5014109;28;20459;-57
2022/07/04 13:51:54;;;;;;;3.83;1.30;;;;;;;;;;5014243;28;20423;-57
2022/07/04 13:54:20;;;;;;;2.03;1.20;;;;;;;;;;5014757;28;20408;-58
2022/07/04 13:56:46;;;;;;;3.23;1.20;;;;;;;;;;5014255;28;20450;-55
2022/07/04 13:59:12;;;;;;;1.53;1.20;;;;;;;;;;5014260;28;20546;-55
2022/07/04 14:01:39;;;;;;;1.20;1.10;;;;;;;;;;5014140;28;20406;-55
2022/07/04 14:04:05;;;;;;;2.57;1.50;;;;;;;;;;5014463;28;20435;-59
2022/07/04 14:06:32;;;;;;;1.70;1.50;;;;;;;;;;5014297;28;20415;-55
2022/07/04 14:08:58;;;;;;;3.80;1.50;;;;;;;;;;5014706;28;20419;-56
2022/07/04 14:11:24;;;;;;;1.50;1.20;;;;;;;;;;5012532;28;20417;-57
2022/07/04 14:13:50;;;;;;;6.60;1.70;;;;;;;;;;5014443;28;20419;-57
2022/07/04 14:16:16;;;;;;;5.40;1.30;;;;;;;;;;5014188;28;20404;-58
2022/07/04 14:18:42;;;;;;;1.63;1.27;;;;;;;;;;5013650;28;20510;-56
2022/07/04 14:21:08;;;;;;;1.53;1.13;;;;;;;;;;5013919;28;20396;-58
2022/07/04 14:23:40;;;;;;;2.03;1.63;;;;;;;;;;5013847;28;20914;-57
2022/07/04 14:26:07;;;;;;;4.87;1.50;;;;;;;;;;5014191;28;20419;-55
2022/07/04 14:28:33;;;;;;;1.93;1.10;;;;;;;;;;5013457;28;20922;-56
2022/07/04 14:30:59;;;;;;;2.20;2.00;;;;;;;;;;5014165;28;20399;-56
2022/07/04 14:33:25;;;;;;;1.40;1.30;;;;;;;;;;5013253;28;20415;-57
2022/07/04 14:35:52;;;;;;;1.27;1.17;;;;;;;;;;5014094;28;20454;-58
2022/07/04 14:38:23;;;;;;;1.97;1.30;;;;;;;;;;5013552;28;20446;-58
2022/07/04 14:40:50;;;;;;;1.60;1.30;;;;;;;;;;5010575;28;20505;-56
2022/07/04 14:43:20;;;;;;;2.30;1.30;;;;;;;;;;5009670;28;20419;-57
2022/07/04 14:45:46;;;;;;;4.33;1.30;;;;;;;;;;5013269;28;20485;-57
2022/07/04 14:48:13;;;;;;;3.07;1.10;;;;;;;;;;5013111;28;20521;-56
2022/07/04 14:50:39;;;;;;;3.23;1.17;;;;;;;;;;5012769;28;20415;-56
2022/07/04 14:53:05;;;;;;;1.97;1.30;;;;;;;;;;5012985;28;20473;-59
2022/07/04 14:55:31;;;;;;;1.97;1.47;;;;;;;;;;5013284;28;20399;-55
2022/07/04 14:57:57;;;;;;;2.17;1.10;;;;;;;;;;5012416;28;20993;-57
2022/07/04 15:00:23;;;;;;;3.10;1.20;;;;;;;;;;5011197;28;20537;-56
2022/07/04 15:02:49;;;;;;;2.70;1.53;;;;;;;;;;5011335;28;20453;-55
2022/07/04 15:05:16;;;;;;;1.50;1.40;;;;;;;;;;5012846;28;20411;-56
2022/07/04 15:07:41;;;;;;;1.80;1.20;;;;;;;;;;5012979;28;20574;-57